createdAt,value
2022-08-19T00:00:28.594Z,14.00
2022-08-19T00:01:53.772Z,13.50
2022-08-19T00:03:15.986Z,12.70
2022-08-19T00:04:38.605Z,12.60
2022-08-19T00:06:00.713Z,13.80
2022-08-19T00:07:22.792Z,14.17
2022-08-19T00:08:45.718Z,13.90
2022-08-19T00:10:09.075Z,13.63
2022-08-19T00:11:32.581Z,14.53
2022-08-19T00:12:54.653Z,16.93
2022-08-19T00:14:18.608Z,15.23
2022-08-19T00:15:40.688Z,17.03
2022-08-19T00:17:04.811Z,17.87
2022-08-19T00:18:27.373Z,14.73
2022-08-19T00:19:49.539Z,15.20
2022-08-19T00:21:11.630Z,15.13
2022-08-19T00:22:34.229Z,14.33
2022-08-19T00:24:00.538Z,16.53
2022-08-19T00:25:30.137Z,16.17
2022-08-19T00:26:53.258Z,17.90
2022-08-19T00:28:15.409Z,16.00
2022-08-19T00:29:37.483Z,15.87
2022-08-19T00:31:00.620Z,15.33
2022-08-19T00:32:22.978Z,16.23
2022-08-19T00:33:45.975Z,15.00
2022-08-19T00:35:08.803Z,15.70
2022-08-19T00:36:32.765Z,15.97
2022-08-19T00:37:55.125Z,15.30
2022-08-19T00:39:18.154Z,14.50
2022-08-19T00:40:40.704Z,14.63
2022-08-19T00:42:02.959Z,15.23
2022-08-19T00:43:27.136Z,14.10
2022-08-19T00:44:50.178Z,14.77
2022-08-19T00:46:12.305Z,15.03
2022-08-19T00:47:34.383Z,14.90
2022-08-19T00:48:58.513Z,14.70
2022-08-19T00:50:22.554Z,14.53
2022-08-19T00:51:47.917Z,16.90
2022-08-19T00:53:13.021Z,16.70
2022-08-19T00:54:37.619Z,17.23
2022-08-19T00:56:01.981Z,17.77
2022-08-19T00:57:36.740Z,15.20
2022-08-19T00:59:00.369Z,15.50
2022-08-19T01:00:25.449Z,16.43
2022-08-19T01:01:48.446Z,15.43
2022-08-19T01:03:15.228Z,14.93
2022-08-19T01:04:37.362Z,14.87
2022-08-19T01:06:00.995Z,15.47
2022-08-19T01:07:23.541Z,17.17
2022-08-19T01:08:46.045Z,16.70
2022-08-19T01:10:15.337Z,19.47
2022-08-19T01:11:41.209Z,18.20
2022-08-19T01:13:04.861Z,17.90
2022-08-19T01:14:27.253Z,17.70
2022-08-19T01:15:57.444Z,17.70
2022-08-19T01:17:20.564Z,16.70
2022-08-19T01:18:44.117Z,17.47
2022-08-19T01:20:10.280Z,20.33
2022-08-19T01:21:34.226Z,18.17
2022-08-19T01:22:59.042Z,17.60
2022-08-19T01:24:21.097Z,19.03
2022-08-19T01:25:48.400Z,20.53
2022-08-19T01:27:10.874Z,18.60
2022-08-19T01:28:34.171Z,19.40
2022-08-19T01:30:01.876Z,18.30
2022-08-19T01:31:27.760Z,17.30
2022-08-19T01:32:51.887Z,18.20
2022-08-19T01:34:14.083Z,18.37
2022-08-19T01:35:37.341Z,19.50
2022-08-19T01:36:59.376Z,19.70
2022-08-19T01:38:29.208Z,18.63
2022-08-19T01:39:51.331Z,17.93
2022-08-19T01:41:13.700Z,15.43
2022-08-19T01:42:36.160Z,17.30
2022-08-19T01:44:12.372Z,17.60
2022-08-19T01:45:41.230Z,15.73
2022-08-19T01:47:04.681Z,17.57
2022-08-19T01:48:26.775Z,15.70
2022-08-19T01:49:48.821Z,18.87
2022-08-19T01:51:11.965Z,16.23
2022-08-19T01:52:36.954Z,17.03
2022-08-19T01:53:59.514Z,17.00
2022-08-19T01:55:25.061Z,17.00
2022-08-19T01:56:47.337Z,17.77
2022-08-19T01:58:21.844Z,16.20
2022-08-19T01:59:45.595Z,17.00
2022-08-19T02:01:08.543Z,14.53
2022-08-19T02:02:30.914Z,16.20
2022-08-19T02:03:54.283Z,17.33
2022-08-19T02:05:19.569Z,16.20
2022-08-19T02:06:41.824Z,17.27
2022-08-19T02:08:04.475Z,17.40
2022-08-19T02:09:26.727Z,18.50
2022-08-19T02:10:49.153Z,17.37
2022-08-19T02:12:11.244Z,17.10
2022-08-19T02:13:34.639Z,17.30
2022-08-19T02:14:56.859Z,18.50
2022-08-19T02:16:20.173Z,16.87
2022-08-19T02:17:42.353Z,16.40
2022-08-19T02:19:05.089Z,16.50
2022-08-19T02:20:27.121Z,15.10
2022-08-19T02:21:49.339Z,15.97
2022-08-19T02:23:13.440Z,16.43
2022-08-19T02:24:36.042Z,16.77
2022-08-19T02:25:58.166Z,16.83
2022-08-19T02:27:20.372Z,16.93
2022-08-19T02:28:43.789Z,16.30
2022-08-19T02:30:14.503Z,17.43
2022-08-19T02:31:37.022Z,17.10
2022-08-19T02:32:59.518Z,16.67
2022-08-19T02:34:21.675Z,16.80
2022-08-19T02:35:45.964Z,17.20
2022-08-19T02:37:28.617Z,16.53
2022-08-19T02:38:54.215Z,15.90
2022-08-19T02:40:18.775Z,16.00
2022-08-19T02:41:40.907Z,15.70
2022-08-19T02:43:08.874Z,17.60
2022-08-19T02:44:31.961Z,16.50
2022-08-19T02:45:54.750Z,16.13
2022-08-19T02:47:16.811Z,15.93
2022-08-19T02:48:38.928Z,17.47
2022-08-19T02:50:02.646Z,16.33
2022-08-19T02:51:33.812Z,16.83
2022-08-19T02:52:55.886Z,15.60
2022-08-19T02:54:17.993Z,16.97
2022-08-19T02:55:49.414Z,17.10
2022-08-19T02:57:11.746Z,15.10
2022-08-19T02:58:33.813Z,15.40
2022-08-19T02:59:55.942Z,15.53
2022-08-19T03:01:36.641Z,16.63
2022-08-19T03:02:58.768Z,14.80
2022-08-19T03:04:20.871Z,15.53
2022-08-19T03:05:55.975Z,14.30
2022-08-19T03:07:19.665Z,15.83
2022-08-19T03:08:43.820Z,15.37
2022-08-19T03:10:06.772Z,17.27
2022-08-19T03:11:31.954Z,17.30
2022-08-19T03:12:54.196Z,16.03
2022-08-19T03:14:16.545Z,16.63
2022-08-19T03:15:44.165Z,17.93
2022-08-19T03:17:06.546Z,17.30
2022-08-19T03:18:28.686Z,16.73
2022-08-19T03:19:50.724Z,15.47
2022-08-19T03:21:24.904Z,17.73
2022-08-19T03:22:47.058Z,16.07
2022-08-19T03:24:09.922Z,16.57
2022-08-19T03:25:32.060Z,16.33
2022-08-19T03:26:59.622Z,16.53
2022-08-19T03:28:22.234Z,16.20
2022-08-19T03:29:44.860Z,15.80
2022-08-19T03:31:45.481Z,16.63
2022-08-19T03:32:53.679Z,16.80
2022-08-19T03:34:27.428Z,13.87
2022-08-19T03:36:01.750Z,14.77
2022-08-19T03:37:23.908Z,15.00
2022-08-19T03:38:50.744Z,16.47
2022-08-19T03:40:21.656Z,14.60
2022-08-19T03:41:46.641Z,14.27
2022-08-19T03:43:10.682Z,15.33
2022-08-19T03:44:33.443Z,15.17
2022-08-19T03:46:08.514Z,15.50
2022-08-19T03:47:31.436Z,16.47
2022-08-19T03:48:55.919Z,16.23
2022-08-19T03:50:20.330Z,15.40
2022-08-19T03:51:44.092Z,15.90
2022-08-19T03:53:07.325Z,15.73
2022-08-19T03:54:30.320Z,15.83
2022-08-19T03:55:52.420Z,14.80
2022-08-19T03:57:14.460Z,16.87
2022-08-19T03:58:38.585Z,15.27
2022-08-19T04:00:03.773Z,15.57
2022-08-19T04:01:36.334Z,14.70
2022-08-19T04:03:00.602Z,15.20
2022-08-19T04:04:23.729Z,15.60
2022-08-19T04:05:47.699Z,15.40
2022-08-19T04:07:11.083Z,15.70
2022-08-19T04:08:33.105Z,15.40
2022-08-19T04:09:55.226Z,14.90
2022-08-19T04:11:22.312Z,15.87
2022-08-19T04:13:06.282Z,14.97
2022-08-19T04:14:31.283Z,16.80
2022-08-19T04:15:54.434Z,16.17
2022-08-19T04:17:16.587Z,15.70
2022-08-19T04:18:40.181Z,14.20
2022-08-19T04:20:02.396Z,12.27
2022-08-19T04:21:29.772Z,14.00
2022-08-19T04:22:51.986Z,12.80
2022-08-19T04:24:15.135Z,13.30
2022-08-19T04:25:39.706Z,14.90
2022-08-19T04:27:03.694Z,13.50
2022-08-19T04:28:26.761Z,12.60
2022-08-19T04:29:49.075Z,12.13
2022-08-19T04:31:16.409Z,13.67
2022-08-19T04:32:38.468Z,13.40
2022-08-19T04:34:02.468Z,13.77
2022-08-19T04:35:25.073Z,13.13
2022-08-19T04:36:47.241Z,11.40
2022-08-19T04:38:10.563Z,14.13
2022-08-19T04:39:51.268Z,13.50
2022-08-19T04:41:32.111Z,13.40
2022-08-19T04:42:55.064Z,13.43
2022-08-19T04:44:19.105Z,11.03
2022-08-19T04:45:43.843Z,11.57
2022-08-19T04:47:11.450Z,11.73
2022-08-19T04:48:35.252Z,10.27
2022-08-19T04:49:58.334Z,10.33
2022-08-19T04:51:21.676Z,12.33
2022-08-19T04:52:43.846Z,12.90
2022-08-19T04:54:05.951Z,11.87
2022-08-19T04:55:28.017Z,12.90
2022-08-19T04:56:50.974Z,12.00
2022-08-19T04:58:13.131Z,11.23
2022-08-19T04:59:35.877Z,13.00
2022-08-19T05:00:58.095Z,13.30
2022-08-19T05:02:20.311Z,14.93
2022-08-19T05:03:42.449Z,14.10
2022-08-19T05:05:05.004Z,15.90
2022-08-19T05:06:27.419Z,13.53
2022-08-19T05:07:49.489Z,14.70
2022-08-19T05:09:11.557Z,13.00
2022-08-19T05:10:36.897Z,12.20
2022-08-19T05:11:58.933Z,11.50
2022-08-19T05:13:21.077Z,12.90
2022-08-19T05:14:43.510Z,11.70
2022-08-19T05:16:05.666Z,11.27
2022-08-19T05:17:32.086Z,10.90
2022-08-19T05:19:14.927Z,12.03
2022-08-19T05:20:58.433Z,13.07
2022-08-19T05:22:33.431Z,11.60
2022-08-19T05:23:55.572Z,11.43
2022-08-19T05:25:20.421Z,11.70
2022-08-19T05:26:47.285Z,10.80
2022-08-19T05:28:09.322Z,13.30
2022-08-19T05:29:36.289Z,10.90
2022-08-19T05:30:58.749Z,12.10
2022-08-19T05:32:22.641Z,12.73
2022-08-19T05:33:44.747Z,13.13
2022-08-19T05:35:07.389Z,13.00
2022-08-19T05:36:36.069Z,13.43
2022-08-19T05:37:58.960Z,13.90
2022-08-19T05:39:22.046Z,14.20
2022-08-19T05:40:47.902Z,13.73
2022-08-19T05:42:12.289Z,12.40
2022-08-19T05:43:34.539Z,12.33
2022-08-19T05:44:57.675Z,11.40
2022-08-19T05:46:27.989Z,12.13
2022-08-19T05:47:50.538Z,14.43
2022-08-19T05:49:12.684Z,13.57
2022-08-19T05:50:37.152Z,13.60
2022-08-19T05:52:00.450Z,13.80
2022-08-19T05:53:22.521Z,13.90
2022-08-19T05:54:45.182Z,15.40
2022-08-19T05:56:17.069Z,13.37
2022-08-19T05:57:39.560Z,15.30
2022-08-19T05:59:01.985Z,14.90
2022-08-19T06:00:24.868Z,15.10
2022-08-19T06:01:47.406Z,16.43
2022-08-19T06:03:11.937Z,13.60
2022-08-19T06:04:35.687Z,15.37
2022-08-19T06:06:00.177Z,13.60
2022-08-19T06:07:22.426Z,13.37
2022-08-19T06:08:51.645Z,14.40
2022-08-19T06:10:13.810Z,15.53
2022-08-19T06:11:45.282Z,15.40
2022-08-19T06:13:07.367Z,16.47
2022-08-19T06:14:35.504Z,17.70
2022-08-19T06:16:02.612Z,17.17
2022-08-19T06:17:26.966Z,17.30
2022-08-19T06:18:58.049Z,16.07
2022-08-19T06:20:39.831Z,16.80
2022-08-19T06:22:04.258Z,16.93
2022-08-19T06:23:26.693Z,18.20
2022-08-19T06:24:48.989Z,16.90
2022-08-19T06:26:13.954Z,17.63
2022-08-19T06:27:37.853Z,16.07
2022-08-19T06:29:01.964Z,17.47
2022-08-19T06:30:24.470Z,16.57
2022-08-19T06:31:53.361Z,18.17
2022-08-19T06:33:15.504Z,19.80
2022-08-19T06:34:37.718Z,20.00
2022-08-19T06:35:59.819Z,18.87
2022-08-19T06:37:22.620Z,17.30
2022-08-19T06:38:44.849Z,16.10
2022-08-19T06:40:09.579Z,19.53
2022-08-19T06:41:37.097Z,17.87
2022-08-19T06:43:03.102Z,15.70
2022-08-19T06:44:35.378Z,18.93
2022-08-19T06:46:11.621Z,18.57
2022-08-19T06:47:37.271Z,21.40
2022-08-19T06:48:59.614Z,20.47
2022-08-19T06:50:21.938Z,17.27
2022-08-19T06:51:51.911Z,17.80
2022-08-19T06:53:14.087Z,20.87
2022-08-19T06:54:37.733Z,20.73
2022-08-19T06:56:21.965Z,20.27
2022-08-19T06:57:47.146Z,19.77
2022-08-19T06:59:12.042Z,19.37
2022-08-19T07:00:34.748Z,17.63
2022-08-19T07:01:58.061Z,18.67
2022-08-19T07:03:20.397Z,18.63
2022-08-19T07:04:42.576Z,17.87
2022-08-19T07:06:26.550Z,18.77
2022-08-19T07:07:53.390Z,16.37
2022-08-19T07:09:19.687Z,17.90
2022-08-19T07:10:47.530Z,18.43
2022-08-19T07:12:12.133Z,17.13
2022-08-19T07:13:39.499Z,18.33
2022-08-19T07:15:01.718Z,18.30
2022-08-19T07:16:29.034Z,17.87
2022-08-19T07:17:52.764Z,17.30
2022-08-19T07:19:18.705Z,16.70
2022-08-19T07:20:41.820Z,18.87
2022-08-19T07:22:06.576Z,16.50
2022-08-19T07:23:28.718Z,18.37
2022-08-19T07:24:52.026Z,18.23
2022-08-19T07:26:20.211Z,17.70
2022-08-19T07:27:54.610Z,18.33
2022-08-19T07:29:17.489Z,20.10
2022-08-19T07:30:41.675Z,18.93
2022-08-19T07:32:06.671Z,16.93
2022-08-19T07:33:36.843Z,16.87
2022-08-19T07:35:01.543Z,17.60
2022-08-19T07:36:32.080Z,17.80
2022-08-19T07:37:54.398Z,19.13
2022-08-19T07:39:23.976Z,16.83
2022-08-19T07:40:47.263Z,16.00
2022-08-19T07:42:11.473Z,18.77
2022-08-19T07:43:35.668Z,17.37
2022-08-19T07:44:59.357Z,18.07
2022-08-19T07:46:21.707Z,18.57
2022-08-19T07:47:49.585Z,19.93
2022-08-19T07:49:18.414Z,20.27
2022-08-19T07:50:40.507Z,18.43
2022-08-19T07:52:07.925Z,19.63
2022-08-19T07:53:31.313Z,20.47
2022-08-19T07:54:53.706Z,19.87
2022-08-19T07:56:16.112Z,18.33
2022-08-19T07:57:39.861Z,19.13
2022-08-19T07:59:01.990Z,21.70
2022-08-19T08:00:24.377Z,20.60
2022-08-19T08:01:47.375Z,20.90
2022-08-19T08:03:10.141Z,20.03
2022-08-19T08:04:50.769Z,21.67
2022-08-19T08:06:34.932Z,22.40
2022-08-19T08:08:16.101Z,21.23
2022-08-19T08:09:41.616Z,20.93
2022-08-19T08:11:07.812Z,20.20
2022-08-19T08:12:42.310Z,20.10
2022-08-19T08:14:05.792Z,20.20
2022-08-19T08:15:27.835Z,21.10
2022-08-19T08:16:52.219Z,19.43
2022-08-19T08:18:14.566Z,20.43
2022-08-19T08:19:38.283Z,19.60
2022-08-19T08:21:00.561Z,17.93
2022-08-19T08:22:42.432Z,17.67
2022-08-19T08:24:05.041Z,15.10
2022-08-19T08:25:27.490Z,15.60
2022-08-19T08:26:57.677Z,14.00
2022-08-19T08:28:20.392Z,15.37
2022-08-19T08:29:42.543Z,13.70
2022-08-19T08:31:09.759Z,13.57
2022-08-19T08:32:32.026Z,12.80
2022-08-19T08:33:54.174Z,14.27
2022-08-19T08:35:23.235Z,12.80
2022-08-19T08:36:46.837Z,14.60
2022-08-19T08:38:08.932Z,13.77
2022-08-19T08:39:31.223Z,13.77
2022-08-19T08:41:07.581Z,13.50
2022-08-19T08:42:37.214Z,14.07
2022-08-19T08:43:59.946Z,14.47
2022-08-19T08:45:23.359Z,16.00
2022-08-19T08:46:53.843Z,14.17
2022-08-19T08:48:32.227Z,16.77
2022-08-19T08:50:01.381Z,18.13
2022-08-19T08:53:06.209Z,15.20
2022-08-19T08:54:55.446Z,14.63
2022-08-19T08:56:18.433Z,13.60
2022-08-19T08:57:54.497Z,15.00
2022-08-19T08:59:33.349Z,14.20
2022-08-19T09:00:55.474Z,13.80
2022-08-19T09:02:18.096Z,14.43
2022-08-19T09:03:42.813Z,12.80
2022-08-19T09:05:05.579Z,14.00
2022-08-19T09:06:36.644Z,14.23
2022-08-19T09:08:12.103Z,12.27
2022-08-19T09:09:42.884Z,14.30
2022-08-19T09:11:09.861Z,15.00
2022-08-19T09:12:54.899Z,14.10
2022-08-19T09:14:47.442Z,14.00
2022-08-19T09:16:07.590Z,14.90
2022-08-19T09:17:32.260Z,15.03
2022-08-19T09:19:08.054Z,18.07
2022-08-19T09:20:32.064Z,19.50
2022-08-19T09:21:55.339Z,20.73
2022-08-19T09:23:19.050Z,20.80
2022-08-19T09:24:55.784Z,20.80
2022-08-19T09:26:21.189Z,21.53
2022-08-19T09:27:45.155Z,21.07
2022-08-19T09:29:07.768Z,20.07
2022-08-19T09:30:33.535Z,20.63
2022-08-19T09:31:55.785Z,21.70
2022-08-19T09:33:18.479Z,23.13
2022-08-19T09:34:44.022Z,24.13
2022-08-19T09:36:09.729Z,23.40
2022-08-19T09:37:31.760Z,23.10
2022-08-19T09:38:56.944Z,23.20
2022-08-19T09:40:21.205Z,23.57
2022-08-19T09:41:47.674Z,22.93
2022-08-19T09:43:13.488Z,24.57
2022-08-19T09:44:35.902Z,23.27
2022-08-19T09:46:01.196Z,25.20
2022-08-19T09:47:23.272Z,26.23
2022-08-19T09:48:49.238Z,26.47
2022-08-19T09:50:16.615Z,26.17
2022-08-19T09:51:38.923Z,23.80
2022-08-19T09:53:01.751Z,26.10
2022-08-19T09:54:25.325Z,28.07
2022-08-19T09:55:47.559Z,27.70
2022-08-19T09:57:09.689Z,26.13
2022-08-19T09:58:35.625Z,28.67
2022-08-19T09:59:57.709Z,27.40
2022-08-19T10:01:23.950Z,26.77
2022-08-19T10:02:46.057Z,30.70
2022-08-19T10:04:19.800Z,29.70
2022-08-19T10:05:49.308Z,29.70
2022-08-19T10:07:11.712Z,29.87
2022-08-19T10:08:37.591Z,32.80
2022-08-19T10:09:59.749Z,29.07
2022-08-19T10:11:28.373Z,30.03
2022-08-19T10:12:58.518Z,34.37
2022-08-19T10:14:23.507Z,30.70
2022-08-19T10:15:47.917Z,31.03
2022-08-19T10:17:17.717Z,32.10
2022-08-19T10:18:44.580Z,31.87
2022-08-19T10:20:14.165Z,31.10
2022-08-19T10:21:36.879Z,30.87
2022-08-19T10:23:00.407Z,31.93
2022-08-19T10:24:25.402Z,30.77
2022-08-19T10:25:48.675Z,28.50
2022-08-19T10:27:10.785Z,28.63
2022-08-19T10:28:40.094Z,28.43
2022-08-19T10:30:09.915Z,28.97
2022-08-19T10:31:59.856Z,26.77
2022-08-19T10:33:38.188Z,24.67
2022-08-19T10:34:58.904Z,23.10
2022-08-19T10:36:23.561Z,23.03
2022-08-19T10:37:56.794Z,21.27
2022-08-19T10:39:23.471Z,19.00
2022-08-19T10:40:45.656Z,18.60
2022-08-19T10:42:08.550Z,18.20
2022-08-19T10:43:30.667Z,17.00
2022-08-19T10:44:52.801Z,16.67
2022-08-19T10:46:16.956Z,14.83
2022-08-19T10:47:39.264Z,14.70
2022-08-19T10:49:02.944Z,13.03
2022-08-19T10:50:43.504Z,12.97
2022-08-19T10:52:32.306Z,12.50
2022-08-19T10:53:56.541Z,12.03
2022-08-19T10:55:41.389Z,12.10
2022-08-19T10:57:03.568Z,12.63
2022-08-19T10:58:26.981Z,12.77
2022-08-19T10:59:49.224Z,12.20
2022-08-19T11:01:11.587Z,13.50
2022-08-19T11:02:33.827Z,14.07
2022-08-19T11:03:57.545Z,14.10
2022-08-19T11:05:20.569Z,13.40
2022-08-19T11:06:48.586Z,13.63
2022-08-19T11:08:18.155Z,15.00
2022-08-19T11:09:47.476Z,14.83
2022-08-19T11:11:10.041Z,13.87
2022-08-19T11:12:32.130Z,14.17
2022-08-19T11:13:54.722Z,13.90
2022-08-19T11:15:17.274Z,13.63
2022-08-19T11:16:40.084Z,15.03
2022-08-19T11:18:02.168Z,14.63
2022-08-19T11:19:24.835Z,13.67
2022-08-19T11:20:46.970Z,13.10
2022-08-19T11:22:10.446Z,13.97
2022-08-19T11:23:36.826Z,14.17
2022-08-19T11:24:59.059Z,13.63
2022-08-19T11:26:22.883Z,15.27
2022-08-19T11:27:45.611Z,15.60
2022-08-19T11:29:12.434Z,15.80
2022-08-19T11:30:35.266Z,14.83
2022-08-19T11:31:57.486Z,17.50
2022-08-19T11:33:20.108Z,19.20
2022-08-19T11:34:42.414Z,18.70
2022-08-19T11:36:05.077Z,19.40
2022-08-19T11:37:27.974Z,18.93
2022-08-19T11:38:51.053Z,20.30
2022-08-19T11:40:13.421Z,20.37
2022-08-19T11:41:35.885Z,19.77
2022-08-19T11:42:58.001Z,20.50
2022-08-19T11:44:20.477Z,22.40
2022-08-19T11:45:42.711Z,21.47
2022-08-19T11:47:08.889Z,20.00
2022-08-19T11:48:31.702Z,21.17
2022-08-19T11:49:54.377Z,21.30
2022-08-19T11:51:20.518Z,20.67
2022-08-19T11:52:43.610Z,20.57
2022-08-19T11:54:07.137Z,20.00
2022-08-19T11:55:29.311Z,21.80
2022-08-19T11:56:51.475Z,19.23
2022-08-19T11:58:18.776Z,20.77
2022-08-19T11:59:41.402Z,19.07
2022-08-19T12:01:12.092Z,20.20
2022-08-19T12:02:34.418Z,22.50
2022-08-19T12:03:57.853Z,20.03
2022-08-19T12:05:20.083Z,22.57
2022-08-19T12:06:42.549Z,20.80
2022-08-19T12:08:05.519Z,19.40
2022-08-19T12:09:27.587Z,20.83
2022-08-19T12:10:53.152Z,19.60
2022-08-19T12:12:15.678Z,18.50
2022-08-19T12:13:39.791Z,19.27
2022-08-19T12:15:02.133Z,18.30
2022-08-19T12:16:27.840Z,17.83
2022-08-19T12:17:50.812Z,17.43
2022-08-19T12:19:13.512Z,17.80
2022-08-19T12:20:38.855Z,17.43
2022-08-19T12:22:03.873Z,18.23
2022-08-19T12:23:26.156Z,16.20
2022-08-19T12:24:51.152Z,16.37
2022-08-19T12:26:13.472Z,14.80
2022-08-19T12:27:40.825Z,14.97
2022-08-19T12:29:04.857Z,16.50
2022-08-19T12:30:27.029Z,15.53
2022-08-19T12:31:49.184Z,16.40
2022-08-19T12:33:11.270Z,14.60
2022-08-19T12:34:33.786Z,14.47
2022-08-19T12:36:00.714Z,14.50
2022-08-19T12:37:22.811Z,15.53
2022-08-19T12:38:45.191Z,14.10
2022-08-19T12:40:07.983Z,14.40
2022-08-19T12:41:30.145Z,14.80
2022-08-19T12:42:52.285Z,13.83
2022-08-19T12:44:14.522Z,15.47
2022-08-19T12:45:37.094Z,12.97
2022-08-19T12:47:00.021Z,12.70
2022-08-19T12:48:34.606Z,16.10
2022-08-19T12:49:57.461Z,15.30
2022-08-19T12:51:22.676Z,14.77
2022-08-19T12:52:44.734Z,15.60
2022-08-19T12:54:07.464Z,15.03
2022-08-19T12:55:30.107Z,14.70
2022-08-19T12:56:52.155Z,14.07
2022-08-19T12:58:14.353Z,16.80
2022-08-19T12:59:37.543Z,15.57
2022-08-19T13:00:59.688Z,15.53
2022-08-19T13:02:23.308Z,14.17
2022-08-19T13:03:48.335Z,17.20
2022-08-19T13:05:25.697Z,17.03
2022-08-19T13:06:47.741Z,17.20
2022-08-19T13:09:12.276Z,18.10
2022-08-19T13:10:36.957Z,17.43
2022-08-19T13:11:59.058Z,16.50
2022-08-19T13:13:21.113Z,17.97
2022-08-19T13:14:43.943Z,18.20
2022-08-19T13:16:06.285Z,16.90
2022-08-19T13:17:28.405Z,16.47
2022-08-19T13:18:53.604Z,17.37
2022-08-19T13:20:18.533Z,17.43
2022-08-19T13:21:40.777Z,17.80
2022-08-19T13:23:05.575Z,18.20
2022-08-19T13:24:31.383Z,16.47
2022-08-19T13:26:00.965Z,18.63
2022-08-19T13:27:23.140Z,16.60
2022-08-19T13:29:04.684Z,16.60
2022-08-19T13:30:45.935Z,17.10
2022-08-19T13:32:26.696Z,17.37
2022-08-19T13:33:48.762Z,18.37
2022-08-19T13:35:16.121Z,17.37
2022-08-19T13:36:39.726Z,19.10
2022-08-19T13:38:06.422Z,16.60
2022-08-19T13:39:34.863Z,16.07
2022-08-19T13:40:57.053Z,17.10
2022-08-19T13:42:20.205Z,17.20
2022-08-19T13:43:42.360Z,16.53
2022-08-19T13:45:07.354Z,16.53
2022-08-19T13:46:30.136Z,18.77
2022-08-19T13:47:59.451Z,16.73
2022-08-19T13:49:24.061Z,18.00
2022-08-19T13:50:48.269Z,17.37
2022-08-19T13:52:10.352Z,16.30
2022-08-19T13:53:32.462Z,18.90
2022-08-19T13:54:54.876Z,17.60
2022-08-19T13:56:24.132Z,17.33
2022-08-19T13:57:55.151Z,18.80
2022-08-19T13:59:18.008Z,18.67
2022-08-19T14:00:44.316Z,17.33
2022-08-19T14:02:06.446Z,19.37
2022-08-19T14:03:29.346Z,16.93
2022-08-19T14:04:51.446Z,18.13
2022-08-19T14:06:13.574Z,17.27
2022-08-19T14:07:37.253Z,17.33
2022-08-19T14:09:00.524Z,17.03
2022-08-19T14:10:24.265Z,16.23
2022-08-19T14:11:47.536Z,15.70
2022-08-19T14:13:09.976Z,17.40
2022-08-19T14:14:32.488Z,17.67
2022-08-19T14:15:54.573Z,17.20
2022-08-19T14:17:17.099Z,16.80
2022-08-19T14:18:40.647Z,17.90
2022-08-19T14:20:10.554Z,18.97
2022-08-19T14:21:36.554Z,17.73
2022-08-19T14:23:02.998Z,17.30
2022-08-19T14:24:25.461Z,18.73
2022-08-19T14:25:47.891Z,18.03
2022-08-19T14:27:10.398Z,19.00
2022-08-19T14:28:32.581Z,17.90
2022-08-19T14:29:54.711Z,19.27
2022-08-19T14:31:19.999Z,18.60
2022-08-19T14:32:44.319Z,21.00
2022-08-19T14:34:06.387Z,18.63
2022-08-19T14:35:31.243Z,17.87
2022-08-19T14:36:54.031Z,18.20
2022-08-19T14:38:28.194Z,19.10
2022-08-19T14:39:54.099Z,17.90
2022-08-19T14:41:22.782Z,17.70
2022-08-19T14:42:45.155Z,17.80
2022-08-19T14:44:07.439Z,19.10
2022-08-19T14:45:31.745Z,18.30
2022-08-19T14:46:54.601Z,19.00
2022-08-19T14:48:19.443Z,17.37
2022-08-19T14:49:48.325Z,17.40
2022-08-19T14:51:11.569Z,17.50
2022-08-19T14:52:34.582Z,19.80
2022-08-19T14:53:58.403Z,17.63
2022-08-19T14:55:21.521Z,15.37
2022-08-19T14:56:45.160Z,17.03
2022-08-19T14:58:08.856Z,17.40
2022-08-19T14:59:33.399Z,17.90
2022-08-19T15:00:57.939Z,17.27
2022-08-19T15:02:34.502Z,17.53
2022-08-19T15:03:58.544Z,16.97
2022-08-19T15:05:22.566Z,17.60
2022-08-19T15:06:46.115Z,17.80
2022-08-19T15:08:09.711Z,17.73
2022-08-19T15:09:36.685Z,17.40
2022-08-19T15:11:00.949Z,19.13
2022-08-19T15:12:25.640Z,18.50
2022-08-19T15:13:50.094Z,18.03
2022-08-19T15:15:15.743Z,17.50
2022-08-19T15:16:42.117Z,20.30
2022-08-19T15:18:05.682Z,17.87
2022-08-19T15:19:29.632Z,19.00
2022-08-19T15:20:53.309Z,18.60
2022-08-19T15:22:16.679Z,17.47
2022-08-19T15:23:39.205Z,17.50
2022-08-19T15:25:02.213Z,18.90
2022-08-19T15:26:27.318Z,19.50
2022-08-19T15:27:49.526Z,17.30
2022-08-19T15:29:15.472Z,18.80
2022-08-19T15:30:37.970Z,18.73
2022-08-19T15:32:00.100Z,18.93
2022-08-19T15:33:23.679Z,17.70
2022-08-19T15:34:49.569Z,17.83
2022-08-19T15:36:16.730Z,17.60
2022-08-19T15:37:41.280Z,18.60
2022-08-19T15:39:05.317Z,16.80
2022-08-19T15:40:28.257Z,15.63
2022-08-19T15:41:50.415Z,17.53
2022-08-19T15:43:12.449Z,15.20
2022-08-19T15:44:34.793Z,15.30
2022-08-19T15:45:56.812Z,13.97
2022-08-19T15:47:20.633Z,15.50
2022-08-19T15:48:42.651Z,13.90
2022-08-19T15:50:18.449Z,13.60
2022-08-19T15:51:43.139Z,13.70
2022-08-19T15:53:11.014Z,12.57
2022-08-19T15:54:33.546Z,13.27
2022-08-19T15:55:55.650Z,12.83
2022-08-19T15:57:26.819Z,14.13
2022-08-19T15:59:07.329Z,14.00
2022-08-19T16:00:50.023Z,13.40
2022-08-19T16:02:37.016Z,13.47
2022-08-19T16:04:19.458Z,14.57
2022-08-19T16:06:07.505Z,13.60
2022-08-19T16:07:29.915Z,17.20
2022-08-19T16:08:57.783Z,14.73
2022-08-19T16:10:26.218Z,16.87
2022-08-19T16:11:56.498Z,17.57
2022-08-19T16:13:19.326Z,16.83
2022-08-19T16:14:41.372Z,17.50
2022-08-19T16:16:03.666Z,17.07
2022-08-19T16:17:25.861Z,17.60
2022-08-19T16:18:48.232Z,17.17
2022-08-19T16:20:11.155Z,17.60
2022-08-19T16:21:35.592Z,17.40
2022-08-19T16:22:59.387Z,16.80
2022-08-19T16:24:24.306Z,16.77
2022-08-19T16:25:46.367Z,17.63
2022-08-19T16:27:08.566Z,17.93
2022-08-19T16:28:30.709Z,18.20
2022-08-19T16:29:53.000Z,17.50
2022-08-19T16:31:15.658Z,17.03
2022-08-19T16:32:42.283Z,15.70
2022-08-19T16:34:05.209Z,16.43
2022-08-19T16:35:27.325Z,17.90
2022-08-19T16:36:50.355Z,17.63
2022-08-19T16:38:12.589Z,17.57
2022-08-19T16:39:34.735Z,17.43
2022-08-19T16:40:57.147Z,18.23
2022-08-19T16:42:19.556Z,18.10
2022-08-19T16:43:42.302Z,17.40
2022-08-19T16:45:04.925Z,19.20
2022-08-19T16:46:27.654Z,18.40
2022-08-19T16:47:50.519Z,19.80
2022-08-19T16:49:13.515Z,19.60
2022-08-19T16:50:48.833Z,19.73
2022-08-19T16:52:11.816Z,21.33
2022-08-19T16:53:35.613Z,19.10
2022-08-19T16:54:58.115Z,20.33
2022-08-19T16:56:21.396Z,19.20
2022-08-19T16:57:43.814Z,20.53
2022-08-19T16:59:06.576Z,21.87
2022-08-19T17:00:28.679Z,21.37
2022-08-19T17:01:52.273Z,21.60
2022-08-19T17:03:15.269Z,21.47
2022-08-19T17:04:37.635Z,21.47
2022-08-19T17:06:03.814Z,23.23
2022-08-19T17:07:33.334Z,22.70
2022-08-19T17:08:58.914Z,22.77
2022-08-19T17:10:21.012Z,21.80
2022-08-19T17:11:43.107Z,25.30
2022-08-19T17:13:06.516Z,23.20
2022-08-19T17:14:28.554Z,22.80
2022-08-19T17:15:50.634Z,25.93
2022-08-19T17:17:12.945Z,23.83
2022-08-19T17:18:35.206Z,25.97
2022-08-19T17:20:02.374Z,24.20
2022-08-19T17:21:28.288Z,26.30
2022-08-19T17:22:50.428Z,27.13
2022-08-19T17:24:12.544Z,24.13
2022-08-19T17:25:34.964Z,25.40
2022-08-19T17:26:57.072Z,24.07
2022-08-19T17:28:25.718Z,25.43
2022-08-19T17:29:48.102Z,26.33
2022-08-19T17:31:10.307Z,25.70
2022-08-19T17:32:34.765Z,23.57
2022-08-19T17:33:58.824Z,24.43
2022-08-19T17:35:24.116Z,24.80
2022-08-19T17:36:47.068Z,26.20
2022-08-19T17:38:11.922Z,27.43
2022-08-19T17:39:39.648Z,27.10
2022-08-19T17:41:05.300Z,27.97
2022-08-19T17:42:27.956Z,26.30
2022-08-19T17:43:50.285Z,27.40
2022-08-19T17:45:13.770Z,29.83
2022-08-19T17:46:36.178Z,31.73
2022-08-19T17:47:58.202Z,29.20
2022-08-19T17:49:20.323Z,30.00
2022-08-19T17:50:42.683Z,28.57
2022-08-19T17:52:09.909Z,30.67
2022-08-19T17:53:32.382Z,30.90
2022-08-19T17:54:54.661Z,29.40
2022-08-19T17:56:17.102Z,31.20
2022-08-19T17:57:41.882Z,31.00
2022-08-19T17:59:07.856Z,31.53
2022-08-19T18:00:36.206Z,29.43
2022-08-19T18:01:58.841Z,28.70
2022-08-19T18:03:22.169Z,29.57
2022-08-19T18:04:48.586Z,27.13
2022-08-19T18:06:11.411Z,28.07
2022-08-19T18:07:34.369Z,26.43
2022-08-19T18:08:56.677Z,27.10
2022-08-19T18:10:20.375Z,27.47
2022-08-19T18:11:43.900Z,26.60
2022-08-19T18:13:17.171Z,24.83
2022-08-19T18:14:41.153Z,24.70
2022-08-19T18:16:06.944Z,24.80
2022-08-19T18:17:29.247Z,23.73
2022-08-19T18:18:54.374Z,23.17